This is the latest recevied weather packets stored in our database for station/object TVARMINN. If no packets are shown the sender has not sent any weather packets the latest 10 day(s).
| Time | Temp. | Humidity | Pressure | Rain* | Wind** | Luminosity | Snow |
|---|---|---|---|---|---|---|---|
| 1777979240 | 9.44° C | 55% | 1005.7 hPa | 0 mm | - | - | - |
| 1777978040 | 9.44° C | 55% | 1005.5 hPa | 0 mm | - | - | - |
| 1777976840 | 9.44° C | 59% | 1005.2 hPa | 0 mm | - | - | - |
| 1777975640 | 9.44° C | 61% | 1005 hPa | 0 mm | - | - | - |
| 1777974440 | 9.44° C | 60% | 1004.7 hPa | 0 mm | - | - | - |
| 1777973239 | 9.44° C | 61% | 1004.4 hPa | 0 mm | - | - | - |
| 1777972040 | 9.44° C | 61% | 1004.1 hPa | 0 mm | - | - | - |
| 1777970841 | 8.89° C | 62% | 1003.9 hPa | 0 mm | - | - | - |
| 1777969640 | 9.44° C | 63% | 1003.5 hPa | 0 mm | - | - | - |
| 1777968440 | 9.44° C | 62% | 1003.2 hPa | 0 mm | - | - | - |
| 1777967239 | 10° C | 64% | 1002.9 hPa | 0 mm | - | - | - |
| 1777966039 | 10° C | 63% | 1002.6 hPa | 0 mm | - | - | - |
| 1777964839 | 10° C | 66% | 1002.4 hPa | 0 mm | - | - | - |
| 1777963639 | 10° C | 65% | 1002.3 hPa | 0 mm | - | - | - |
| 1777962439 | 10° C | 65% | 1002.1 hPa | 0 mm | - | - | - |
| 1777961239 | 8.89° C | 71% | 1001.9 hPa | 0 mm | - | - | - |
| 1777960039 | 8.33° C | 74% | 1001.9 hPa | 0 mm | - | - | - |
| 1777958839 | 7.78° C | 76% | 1001.8 hPa | 0 mm | - | - | - |
| 1777957639 | 7.78° C | 76% | 1001.8 hPa | 0 mm | - | - | - |
| 1777956439 | 7.22° C | 78% | 1001.7 hPa | 0 mm | - | - | - |
| 1777955238 | 7.22° C | 78% | 1001.8 hPa | 0 mm | - | - | - |
| 1777954039 | 7.22° C | 76% | 1001.6 hPa | 0 mm | - | - | - |
| 1777952839 | 6.67° C | 83% | 1001.6 hPa | 0 mm | - | - | - |
| 1777951638 | 5.56° C | 90% | 1001.4 hPa | 0 mm | - | - | - |
| 1777950439 | 5° C | 95% | 1001.6 hPa | 0 mm | - | - | - |
* Rain latest hour (hover to see other rain measurements)
** Current wind speed in m/s (hover to see current wind gust speed)